sensor_id;sensor_type;location;lat;lon;timestamp;P1;durP1;ratioP1;P2;durP2;ratioP2
5217;SDS011;26539;51.064;6.346;2024-01-15T00:01:22;58.85;;;24.05;;
5217;SDS011;26539;51.064;6.346;2024-01-15T00:04:04;75.53;;;24.90;;
5217;SDS011;26539;51.064;6.346;2024-01-15T00:09:45;71.75;;;29.20;;
5217;SDS011;26539;51.064;6.346;2024-01-15T00:12:54;83.88;;;27.50;;
5217;SDS011;26539;51.064;6.346;2024-01-15T00:15:19;70.17;;;27.53;;
5217;SDS011;26539;51.064;6.346;2024-01-15T00:17:45;64.90;;;26.23;;
5217;SDS011;26539;51.064;6.346;2024-01-15T00:20:11;83.27;;;31.57;;
5217;SDS011;26539;51.064;6.346;2024-01-15T00:22:36;71.20;;;27.70;;
5217;SDS011;26539;51.064;6.346;2024-01-15T00:25:02;76.40;;;28.90;;
5217;SDS011;26539;51.064;6.346;2024-01-15T00:27:28;72.22;;;26.58;;
5217;SDS011;26539;51.064;6.346;2024-01-15T00:29:53;81.50;;;28.80;;
5217;SDS011;26539;51.064;6.346;2024-01-15T00:32:19;75.70;;;26.63;;
5217;SDS011;26539;51.064;6.346;2024-01-15T00:34:45;69.30;;;26.15;;
5217;SDS011;26539;51.064;6.346;2024-01-15T00:37:11;66.17;;;30.63;;
5217;SDS011;26539;51.064;6.346;2024-01-15T00:39:37;82.63;;;29.20;;
5217;SDS011;26539;51.064;6.346;2024-01-15T00:42:02;75.03;;;27.87;;
5217;SDS011;26539;51.064;6.346;2024-01-15T00:44:28;85.60;;;30.93;;
5217;SDS011;26539;51.064;6.346;2024-01-15T00:46:53;80.90;;;29.93;;
5217;SDS011;26539;51.064;6.346;2024-01-15T00:49:19;65.90;;;27.73;;
5217;SDS011;26539;51.064;6.346;2024-01-15T00:51:45;83.23;;;30.93;;
5217;SDS011;26539;51.064;6.346;2024-01-15T00:54:10;90.53;;;30.70;;
5217;SDS011;26539;51.064;6.346;2024-01-15T00:56:36;80.57;;;27.03;;
5217;SDS011;26539;51.064;6.346;2024-01-15T00:59:02;90.53;;;29.37;;
5217;SDS011;26539;51.064;6.346;2024-01-15T01:01:27;82.70;;;29.47;;
5217;SDS011;26539;51.064;6.346;2024-01-15T01:03:53;87.07;;;29.67;;
5217;SDS011;26539;51.064;6.346;2024-01-15T01:06:18;88.53;;;29.90;;
5217;SDS011;26539;51.064;6.346;2024-01-15T01:08:44;80.00;;;28.57;;
5217;SDS011;26539;51.064;6.346;2024-01-15T01:11:12;90.50;;;29.93;;
5217;SDS011;26539;51.064;6.346;2024-01-15T01:13:38;87.28;;;29.88;;
5217;SDS011;26539;51.064;6.346;2024-01-15T01:16:04;81.57;;;29.80;;
5217;SDS011;26539;51.064;6.346;2024-01-15T01:18:29;103.43;;;33.40;;
5217;SDS011;26539;51.064;6.346;2024-01-15T01:20:55;93.30;;;33.03;;
5217;SDS011;26539;51.064;6.346;2024-01-15T01:23:20;100.10;;;30.53;;
5217;SDS011;26539;51.064;6.346;2024-01-15T01:25:46;84.90;;;31.60;;
5217;SDS011;26539;51.064;6.346;2024-01-15T01:28:11;87.00;;;30.67;;
5217;SDS011;26539;51.064;6.346;2024-01-15T01:30:37;92.27;;;34.00;;
5217;SDS011;26539;51.064;6.346;2024-01-15T01:33:02;76.90;;;30.70;;
5217;SDS011;26539;51.064;6.346;2024-01-15T01:35:28;87.90;;;31.67;;
5217;SDS011;26539;51.064;6.346;2024-01-15T01:37:53;93.70;;;32.57;;
5217;SDS011;26539;51.064;6.346;2024-01-15T01:40:19;97.27;;;32.67;;
5217;SDS011;26539;51.064;6.346;2024-01-15T01:42:45;105.80;;;36.03;;
5217;SDS011;26539;51.064;6.346;2024-01-15T01:45:10;97.63;;;29.87;;
5217;SDS011;26539;51.064;6.346;2024-01-15T01:47:36;98.97;;;35.30;;
5217;SDS011;26539;51.064;6.346;2024-01-15T01:50:02;104.20;;;34.13;;
5217;SDS011;26539;51.064;6.346;2024-01-15T01:52:28;87.07;;;35.03;;
5217;SDS011;26539;51.064;6.346;2024-01-15T01:54:54;84.30;;;31.00;;
5217;SDS011;26539;51.064;6.346;2024-01-15T01:57:19;89.10;;;31.67;;
5217;SDS011;26539;51.064;6.346;2024-01-15T01:59:45;90.33;;;32.47;;
5217;SDS011;26539;51.064;6.346;2024-01-15T02:02:12;87.18;;;33.20;;
5217;SDS011;26539;51.064;6.346;2024-01-15T02:04:38;74.00;;;31.98;;
5217;SDS011;26539;51.064;6.346;2024-01-15T02:07:05;81.03;;;31.63;;
5217;SDS011;26539;51.064;6.346;2024-01-15T02:09:30;87.97;;;30.93;;
5217;SDS011;26539;51.064;6.346;2024-01-15T02:11:57;87.57;;;30.10;;
5217;SDS011;26539;51.064;6.346;2024-01-15T02:14:22;85.83;;;32.10;;
5217;SDS011;26539;51.064;6.346;2024-01-15T02:16:48;78.13;;;29.30;;
5217;SDS011;26539;51.064;6.346;2024-01-15T02:19:17;86.67;;;29.80;;
5217;SDS011;26539;51.064;6.346;2024-01-15T02:21:43;67.40;;;26.88;;
5217;SDS011;26539;51.064;6.346;2024-01-15T02:24:09;65.43;;;27.53;;
5217;SDS011;26539;51.064;6.346;2024-01-15T02:26:35;77.60;;;31.50;;
5217;SDS011;26539;51.064;6.346;2024-01-15T02:29:03;65.45;;;26.13;;
5217;SDS011;26539;51.064;6.346;2024-01-15T02:31:29;87.28;;;29.20;;
5217;SDS011;26539;51.064;6.346;2024-01-15T02:33:55;78.27;;;30.33;;
5217;SDS011;26539;51.064;6.346;2024-01-15T02:36:20;81.87;;;29.77;;
5217;SDS011;26539;51.064;6.346;2024-01-15T02:38:46;84.73;;;29.40;;
5217;SDS011;26539;51.064;6.346;2024-01-15T02:41:11;75.00;;;29.07;;
5217;SDS011;26539;51.064;6.346;2024-01-15T02:43:39;78.40;;;29.20;;
5217;SDS011;26539;51.064;6.346;2024-01-15T02:46:05;77.43;;;28.35;;
5217;SDS011;26539;51.064;6.346;2024-01-15T02:48:31;82.60;;;27.40;;
5217;SDS011;26539;51.064;6.346;2024-01-15T02:50:56;68.97;;;29.03;;
5217;SDS011;26539;51.064;6.346;2024-01-15T02:53:22;77.97;;;29.83;;
5217;SDS011;26539;51.064;6.346;2024-01-15T02:55:47;77.87;;;30.37;;
5217;SDS011;26539;51.064;6.346;2024-01-15T02:58:13;72.13;;;26.13;;
5217;SDS011;26539;51.064;6.346;2024-01-15T03:00:39;83.82;;;31.92;;
5217;SDS011;26539;51.064;6.346;2024-01-15T03:03:04;82.40;;;31.47;;
5217;SDS011;26539;51.064;6.346;2024-01-15T03:05:30;82.17;;;33.90;;
5217;SDS011;26539;51.064;6.346;2024-01-15T03:07:55;87.73;;;33.77;;
5217;SDS011;26539;51.064;6.346;2024-01-15T03:10:21;85.97;;;31.20;;
5217;SDS011;26539;51.064;6.346;2024-01-15T03:12:47;84.63;;;29.70;;
5217;SDS011;26539;51.064;6.346;2024-01-15T03:15:12;88.30;;;29.00;;
5217;SDS011;26539;51.064;6.346;2024-01-15T03:17:38;71.07;;;31.80;;
5217;SDS011;26539;51.064;6.346;2024-01-15T03:20:03;60.70;;;27.33;;
5217;SDS011;26539;51.064;6.346;2024-01-15T03:22:29;69.07;;;29.00;;
5217;SDS011;26539;51.064;6.346;2024-01-15T03:24:55;71.77;;;30.00;;
5217;SDS011;26539;51.064;6.346;2024-01-15T03:27:20;69.97;;;30.07;;
5217;SDS011;26539;51.064;6.346;2024-01-15T03:29:46;61.10;;;28.30;;
5217;SDS011;26539;51.064;6.346;2024-01-15T03:32:11;68.07;;;28.90;;
5217;SDS011;26539;51.064;6.346;2024-01-15T03:34:37;68.60;;;25.57;;
5217;SDS011;26539;51.064;6.346;2024-01-15T03:37:02;61.23;;;24.87;;
5217;SDS011;26539;51.064;6.346;2024-01-15T03:39:28;61.30;;;26.58;;
5217;SDS011;26539;51.064;6.346;2024-01-15T03:41:54;69.87;;;28.33;;
5217;SDS011;26539;51.064;6.346;2024-01-15T03:44:20;60.17;;;25.30;;
5217;SDS011;26539;51.064;6.346;2024-01-15T03:46:46;65.47;;;26.13;;
5217;SDS011;26539;51.064;6.346;2024-01-15T03:49:11;50.27;;;24.00;;
5217;SDS011;26539;51.064;6.346;2024-01-15T03:51:37;47.97;;;23.40;;
5217;SDS011;26539;51.064;6.346;2024-01-15T03:54:02;55.00;;;25.57;;
5217;SDS011;26539;51.064;6.346;2024-01-15T03:56:28;53.37;;;22.37;;
5217;SDS011;26539;51.064;6.346;2024-01-15T03:58:53;57.63;;;24.30;;
5217;SDS011;26539;51.064;6.346;2024-01-15T04:01:19;52.97;;;23.77;;
5217;SDS011;26539;51.064;6.346;2024-01-15T04:03:45;45.63;;;20.93;;
5217;SDS011;26539;51.064;6.346;2024-01-15T04:06:10;58.47;;;25.53;;
5217;SDS011;26539;51.064;6.346;2024-01-15T04:08:36;50.50;;;22.70;;
5217;SDS011;26539;51.064;6.346;2024-01-15T04:11:01;46.43;;;21.07;;
5217;SDS011;26539;51.064;6.346;2024-01-15T04:13:27;55.20;;;23.73;;
5217;SDS011;26539;51.064;6.346;2024-01-15T04:15:52;55.47;;;21.87;;
5217;SDS011;26539;51.064;6.346;2024-01-15T04:18:18;43.33;;;21.20;;
5217;SDS011;26539;51.064;6.346;2024-01-15T04:20:43;47.33;;;22.40;;
5217;SDS011;26539;51.064;6.346;2024-01-15T04:23:09;46.42;;;20.52;;
5217;SDS011;26539;51.064;6.346;2024-01-15T04:25:35;50.40;;;21.97;;
5217;SDS011;26539;51.064;6.346;2024-01-15T04:28:01;50.17;;;20.97;;
5217;SDS011;26539;51.064;6.346;2024-01-15T04:30:26;37.87;;;19.50;;
5217;SDS011;26539;51.064;6.346;2024-01-15T04:32:52;43.67;;;19.77;;
5217;SDS011;26539;51.064;6.346;2024-01-15T04:35:18;41.70;;;20.30;;
5217;SDS011;26539;51.064;6.346;2024-01-15T04:37:43;39.83;;;19.33;;
5217;SDS011;26539;51.064;6.346;2024-01-15T04:40:09;57.30;;;22.13;;
5217;SDS011;26539;51.064;6.346;2024-01-15T04:42:35;42.38;;;20.73;;
5217;SDS011;26539;51.064;6.346;2024-01-15T04:45:00;41.10;;;18.13;;
5217;SDS011;26539;51.064;6.346;2024-01-15T04:47:26;39.83;;;18.40;;
5217;SDS011;26539;51.064;6.346;2024-01-15T04:49:52;37.70;;;17.83;;
5217;SDS011;26539;51.064;6.346;2024-01-15T04:52:17;43.40;;;18.90;;
5217;SDS011;26539;51.064;6.346;2024-01-15T04:54:43;38.77;;;16.40;;
5217;SDS011;26539;51.064;6.346;2024-01-15T04:57:08;34.80;;;16.90;;
5217;SDS011;26539;51.064;6.346;2024-01-15T04:59:34;42.87;;;17.40;;
5217;SDS011;26539;51.064;6.346;2024-01-15T05:02:00;36.60;;;16.20;;
5217;SDS011;26539;51.064;6.346;2024-01-15T05:04:25;36.47;;;16.60;;
5217;SDS011;26539;51.064;6.346;2024-01-15T05:06:51;27.13;;;14.93;;
5217;SDS011;26539;51.064;6.346;2024-01-15T05:09:16;33.20;;;13.80;;
5217;SDS011;26539;51.064;6.346;2024-01-15T05:11:42;31.63;;;14.68;;
5217;SDS011;26539;51.064;6.346;2024-01-15T05:14:08;26.57;;;13.73;;
5217;SDS011;26539;51.064;6.346;2024-01-15T05:16:34;29.47;;;14.70;;
5217;SDS011;26539;51.064;6.346;2024-01-15T05:18:59;25.33;;;14.53;;
5217;SDS011;26539;51.064;6.346;2024-01-15T05:21:25;31.63;;;15.07;;
5217;SDS011;26539;51.064;6.346;2024-01-15T05:23:50;37.70;;;15.57;;
5217;SDS011;26539;51.064;6.346;2024-01-15T05:26:16;27.40;;;15.37;;
5217;SDS011;26539;51.064;6.346;2024-01-15T05:28:42;40.47;;;17.00;;
5217;SDS011;26539;51.064;6.346;2024-01-15T05:31:07;31.87;;;16.10;;
5217;SDS011;26539;51.064;6.346;2024-01-15T05:33:33;34.85;;;15.38;;
5217;SDS011;26539;51.064;6.346;2024-01-15T05:35:59;32.30;;;17.40;;
5217;SDS011;26539;51.064;6.346;2024-01-15T05:38:25;33.50;;;17.10;;
5217;SDS011;26539;51.064;6.346;2024-01-15T05:40:50;33.67;;;17.60;;
5217;SDS011;26539;51.064;6.346;2024-01-15T05:43:16;31.83;;;17.50;;
5217;SDS011;26539;51.064;6.346;2024-01-15T05:45:42;34.07;;;16.97;;
5217;SDS011;26539;51.064;6.346;2024-01-15T05:48:08;33.20;;;17.65;;
5217;SDS011;26539;51.064;6.346;2024-01-15T05:50:34;30.30;;;16.67;;
5217;SDS011;26539;51.064;6.346;2024-01-15T05:53:00;29.03;;;16.57;;
5217;SDS011;26539;51.064;6.346;2024-01-15T05:55:25;36.70;;;17.20;;
5217;SDS011;26539;51.064;6.346;2024-01-15T05:57:51;30.43;;;16.63;;
5217;SDS011;26539;51.064;6.346;2024-01-15T06:00:16;31.30;;;15.53;;
5217;SDS011;26539;51.064;6.346;2024-01-15T06:02:42;33.17;;;15.10;;
5217;SDS011;26539;51.064;6.346;2024-01-15T06:05:08;40.37;;;17.67;;
5217;SDS011;26539;51.064;6.346;2024-01-15T06:07:34;36.27;;;17.27;;
5217;SDS011;26539;51.064;6.346;2024-01-15T06:10:00;30.58;;;16.05;;
5217;SDS011;26539;51.064;6.346;2024-01-15T06:12:26;36.97;;;17.80;;
5217;SDS011;26539;51.064;6.346;2024-01-15T06:14:52;38.85;;;18.17;;
5217;SDS011;26539;51.064;6.346;2024-01-15T06:17:18;32.23;;;15.57;;
5217;SDS011;26539;51.064;6.346;2024-01-15T06:19:44;33.70;;;16.97;;
5217;SDS011;26539;51.064;6.346;2024-01-15T06:22:09;30.67;;;15.77;;
5217;SDS011;26539;51.064;6.346;2024-01-15T06:24:35;36.57;;;15.57;;
5217;SDS011;26539;51.064;6.346;2024-01-15T06:27:00;24.60;;;13.80;;
5217;SDS011;26539;51.064;6.346;2024-01-15T06:29:26;25.73;;;14.57;;
5217;SDS011;26539;51.064;6.346;2024-01-15T06:31:54;33.75;;;15.63;;
5217;SDS011;26539;51.064;6.346;2024-01-15T06:34:20;25.50;;;13.43;;
5217;SDS011;26539;51.064;6.346;2024-01-15T06:36:45;26.87;;;14.00;;
5217;SDS011;26539;51.064;6.346;2024-01-15T06:39:11;24.33;;;13.97;;
5217;SDS011;26539;51.064;6.346;2024-01-15T06:41:37;28.37;;;13.37;;
5217;SDS011;26539;51.064;6.346;2024-01-15T06:44:11;23.48;;;15.40;;
5217;SDS011;26539;51.064;6.346;2024-01-15T06:46:44;28.35;;;15.10;;
5217;SDS011;26539;51.064;6.346;2024-01-15T06:49:10;28.13;;;15.18;;
5217;SDS011;26539;51.064;6.346;2024-01-15T06:51:36;33.83;;;16.13;;
5217;SDS011;26539;51.064;6.346;2024-01-15T06:54:02;32.83;;;17.33;;
5217;SDS011;26539;51.064;6.346;2024-01-15T06:56:27;26.37;;;14.50;;
5217;SDS011;26539;51.064;6.346;2024-01-15T06:58:53;33.27;;;17.13;;
5217;SDS011;26539;51.064;6.346;2024-01-15T07:01:18;26.30;;;15.80;;
5217;SDS011;26539;51.064;6.346;2024-01-15T07:03:44;28.80;;;16.67;;
5217;SDS011;26539;51.064;6.346;2024-01-15T07:06:10;35.33;;;16.93;;
5217;SDS011;26539;51.064;6.346;2024-01-15T07:08:36;34.85;;;17.40;;
5217;SDS011;26539;51.064;6.346;2024-01-15T07:11:05;33.13;;;17.23;;
5217;SDS011;26539;51.064;6.346;2024-01-15T07:13:31;39.72;;;17.88;;
5217;SDS011;26539;51.064;6.346;2024-01-15T07:15:57;30.88;;;18.20;;
5217;SDS011;26539;51.064;6.346;2024-01-15T07:18:22;39.13;;;17.20;;
5217;SDS011;26539;51.064;6.346;2024-01-15T07:20:48;33.63;;;18.07;;
5217;SDS011;26539;51.064;6.346;2024-01-15T07:23:14;42.43;;;18.20;;
5217;SDS011;26539;51.064;6.346;2024-01-15T07:25:40;39.17;;;19.60;;
5217;SDS011;26539;51.064;6.346;2024-01-15T07:28:05;31.47;;;16.47;;
5217;SDS011;26539;51.064;6.346;2024-01-15T07:30:31;37.57;;;18.37;;
5217;SDS011;26539;51.064;6.346;2024-01-15T07:32:56;35.10;;;18.10;;
5217;SDS011;26539;51.064;6.346;2024-01-15T07:35:22;29.93;;;15.80;;
5217;SDS011;26539;51.064;6.346;2024-01-15T07:37:47;29.33;;;16.60;;
5217;SDS011;26539;51.064;6.346;2024-01-15T07:40:13;34.60;;;17.53;;
5217;SDS011;26539;51.064;6.346;2024-01-15T07:42:39;30.07;;;17.67;;
5217;SDS011;26539;51.064;6.346;2024-01-15T07:45:05;34.07;;;16.00;;
5217;SDS011;26539;51.064;6.346;2024-01-15T07:47:31;28.20;;;15.88;;
5217;SDS011;26539;51.064;6.346;2024-01-15T07:49:56;30.50;;;15.33;;
5217;SDS011;26539;51.064;6.346;2024-01-15T07:52:22;32.43;;;18.43;;
5217;SDS011;26539;51.064;6.346;2024-01-15T07:54:48;30.47;;;18.07;;
5217;SDS011;26539;51.064;6.346;2024-01-15T07:57:13;33.50;;;17.30;;
5217;SDS011;26539;51.064;6.346;2024-01-15T07:59:39;29.63;;;19.60;;
5217;SDS011;26539;51.064;6.346;2024-01-15T08:02:05;27.50;;;16.00;;
5217;SDS011;26539;51.064;6.346;2024-01-15T08:04:31;34.77;;;19.43;;
5217;SDS011;26539;51.064;6.346;2024-01-15T08:06:56;35.40;;;18.63;;
5217;SDS011;26539;51.064;6.346;2024-01-15T08:09:22;37.10;;;18.20;;
5217;SDS011;26539;51.064;6.346;2024-01-15T08:11:48;29.87;;;18.83;;
5217;SDS011;26539;51.064;6.346;2024-01-15T08:14:14;34.60;;;19.42;;
5217;SDS011;26539;51.064;6.346;2024-01-15T08:16:40;39.90;;;19.47;;
5217;SDS011;26539;51.064;6.346;2024-01-15T08:19:06;42.97;;;22.60;;
5217;SDS011;26539;51.064;6.346;2024-01-15T08:21:31;38.20;;;22.20;;
5217;SDS011;26539;51.064;6.346;2024-01-15T08:23:58;42.73;;;20.00;;
5217;SDS011;26539;51.064;6.346;2024-01-15T08:26:27;38.72;;;20.45;;
5217;SDS011;26539;51.064;6.346;2024-01-15T08:28:53;40.85;;;22.25;;
5217;SDS011;26539;51.064;6.346;2024-01-15T08:31:19;43.53;;;22.20;;
5217;SDS011;26539;51.064;6.346;2024-01-15T08:33:44;36.83;;;19.70;;
5217;SDS011;26539;51.064;6.346;2024-01-15T08:36:10;38.45;;;20.55;;
5217;SDS011;26539;51.064;6.346;2024-01-15T08:38:36;38.67;;;20.70;;
5217;SDS011;26539;51.064;6.346;2024-01-15T08:41:02;31.90;;;17.30;;
5217;SDS011;26539;51.064;6.346;2024-01-15T08:43:27;36.67;;;19.07;;
5217;SDS011;26539;51.064;6.346;2024-01-15T08:45:53;40.50;;;18.90;;
5217;SDS011;26539;51.064;6.346;2024-01-15T08:48:18;30.33;;;17.30;;
5217;SDS011;26539;51.064;6.346;2024-01-15T08:50:44;29.40;;;17.10;;
5217;SDS011;26539;51.064;6.346;2024-01-15T08:53:13;36.03;;;17.27;;
5217;SDS011;26539;51.064;6.346;2024-01-15T08:55:38;32.28;;;17.65;;
5217;SDS011;26539;51.064;6.346;2024-01-15T08:58:04;27.80;;;15.90;;
5217;SDS011;26539;51.064;6.346;2024-01-15T09:00:31;32.22;;;17.50;;
5217;SDS011;26539;51.064;6.346;2024-01-15T09:02:56;32.00;;;15.37;;
5217;SDS011;26539;51.064;6.346;2024-01-15T09:05:22;40.60;;;18.10;;
5217;SDS011;26539;51.064;6.346;2024-01-15T09:07:48;29.90;;;15.77;;
5217;SDS011;26539;51.064;6.346;2024-01-15T09:10:14;26.13;;;15.37;;
5217;SDS011;26539;51.064;6.346;2024-01-15T09:12:39;26.60;;;15.23;;
5217;SDS011;26539;51.064;6.346;2024-01-15T09:15:05;27.63;;;15.70;;
5217;SDS011;26539;51.064;6.346;2024-01-15T09:17:31;31.25;;;15.75;;
5217;SDS011;26539;51.064;6.346;2024-01-15T09:19:57;26.17;;;15.00;;
5217;SDS011;26539;51.064;6.346;2024-01-15T09:22:23;27.93;;;15.07;;
5217;SDS011;26539;51.064;6.346;2024-01-15T09:24:48;29.50;;;15.93;;
5217;SDS011;26539;51.064;6.346;2024-01-15T09:27:14;32.73;;;16.57;;
5217;SDS011;26539;51.064;6.346;2024-01-15T09:29:40;23.60;;;14.00;;
5217;SDS011;26539;51.064;6.346;2024-01-15T09:32:07;27.60;;;13.50;;
5217;SDS011;26539;51.064;6.346;2024-01-15T09:34:33;29.07;;;13.73;;
5217;SDS011;26539;51.064;6.346;2024-01-15T09:36:59;25.00;;;13.03;;
5217;SDS011;26539;51.064;6.346;2024-01-15T09:39:25;22.70;;;12.90;;
5217;SDS011;26539;51.064;6.346;2024-01-15T09:41:53;19.80;;;10.52;;
5217;SDS011;26539;51.064;6.346;2024-01-15T09:44:19;21.65;;;10.55;;
5217;SDS011;26539;51.064;6.346;2024-01-15T09:46:46;19.77;;;9.50;;
5217;SDS011;26539;51.064;6.346;2024-01-15T09:49:14;16.40;;;10.30;;
5217;SDS011;26539;51.064;6.346;2024-01-15T09:51:40;16.47;;;9.67;;
5217;SDS011;26539;51.064;6.346;2024-01-15T09:54:06;16.27;;;9.10;;
5217;SDS011;26539;51.064;6.346;2024-01-15T09:56:33;17.75;;;9.30;;
5217;SDS011;26539;51.064;6.346;2024-01-15T09:58:59;14.60;;;9.70;;
5217;SDS011;26539;51.064;6.346;2024-01-15T10:01:25;15.47;;;9.27;;
5217;SDS011;26539;51.064;6.346;2024-01-15T10:03:51;13.90;;;8.75;;
5217;SDS011;26539;51.064;6.346;2024-01-15T10:06:18;13.73;;;8.75;;
5217;SDS011;26539;51.064;6.346;2024-01-15T10:08:47;13.15;;;7.13;;
5217;SDS011;26539;51.064;6.346;2024-01-15T10:11:14;11.18;;;6.82;;
5217;SDS011;26539;51.064;6.346;2024-01-15T10:13:39;9.73;;;6.47;;
5217;SDS011;26539;51.064;6.346;2024-01-15T10:16:05;10.60;;;7.10;;
5217;SDS011;26539;51.064;6.346;2024-01-15T10:18:31;11.23;;;6.30;;
5217;SDS011;26539;51.064;6.346;2024-01-15T10:20:57;9.00;;;6.03;;
5217;SDS011;26539;51.064;6.346;2024-01-15T10:23:23;9.17;;;5.70;;
5217;SDS011;26539;51.064;6.346;2024-01-15T10:25:49;10.18;;;7.15;;
5217;SDS011;26539;51.064;6.346;2024-01-15T10:28:16;10.68;;;7.03;;
5217;SDS011;26539;51.064;6.346;2024-01-15T10:30:44;11.18;;;6.97;;
5217;SDS011;26539;51.064;6.346;2024-01-15T10:33:09;16.83;;;9.47;;
5217;SDS011;26539;51.064;6.346;2024-01-15T10:35:36;11.25;;;6.40;;
5217;SDS011;26539;51.064;6.346;2024-01-15T10:38:03;10.70;;;6.40;;
5217;SDS011;26539;51.064;6.346;2024-01-15T10:40:30;14.07;;;6.70;;
5217;SDS011;26539;51.064;6.346;2024-01-15T10:42:56;6.65;;;5.68;;
5217;SDS011;26539;51.064;6.346;2024-01-15T10:45:22;8.63;;;5.57;;
5217;SDS011;26539;51.064;6.346;2024-01-15T10:47:48;8.27;;;5.95;;
5217;SDS011;26539;51.064;6.346;2024-01-15T10:50:14;7.87;;;4.50;;
5217;SDS011;26539;51.064;6.346;2024-01-15T10:52:40;9.93;;;6.10;;
5217;SDS011;26539;51.064;6.346;2024-01-15T10:55:08;11.85;;;8.20;;
5217;SDS011;26539;51.064;6.346;2024-01-15T10:57:34;13.48;;;9.85;;
5217;SDS011;26539;51.064;6.346;2024-01-15T11:00:04;13.93;;;8.63;;
5217;SDS011;26539;51.064;6.346;2024-01-15T11:02:31;15.32;;;9.05;;
5217;SDS011;26539;51.064;6.346;2024-01-15T11:04:59;16.30;;;8.88;;
5217;SDS011;26539;51.064;6.346;2024-01-15T11:07:25;15.20;;;8.77;;
5217;SDS011;26539;51.064;6.346;2024-01-15T11:09:51;13.30;;;8.48;;
5217;SDS011;26539;51.064;6.346;2024-01-15T11:12:17;17.02;;;10.25;;
5217;SDS011;26539;51.064;6.346;2024-01-15T11:14:47;15.23;;;9.98;;
5217;SDS011;26539;51.064;6.346;2024-01-15T11:17:14;17.08;;;10.15;;
5217;SDS011;26539;51.064;6.346;2024-01-15T11:22:09;15.87;;;10.10;;
5217;SDS011;26539;51.064;6.346;2024-01-15T11:24:56;19.02;;;11.45;;
5217;SDS011;26539;51.064;6.346;2024-01-15T11:30:07;18.60;;;11.40;;
5217;SDS011;26539;51.064;6.346;2024-01-15T11:32:35;23.85;;;13.77;;
5217;SDS011;26539;51.064;6.346;2024-01-15T11:35:01;25.07;;;14.60;;
5217;SDS011;26539;51.064;6.346;2024-01-15T11:37:28;24.10;;;12.77;;
5217;SDS011;26539;51.064;6.346;2024-01-15T11:40:14;30.50;;;11.40;;
5217;SDS011;26539;51.064;6.346;2024-01-15T11:42:44;23.95;;;12.73;;
5217;SDS011;26539;51.064;6.346;2024-01-15T11:45:10;24.05;;;14.13;;
5217;SDS011;26539;51.064;6.346;2024-01-15T11:50:26;20.40;;;13.93;;
5217;SDS011;26539;51.064;6.346;2024-01-15T11:53:02;17.80;;;11.88;;
5217;SDS011;26539;51.064;6.346;2024-01-15T11:55:35;21.20;;;11.10;;
5217;SDS011;26539;51.064;6.346;2024-01-15T11:58:05;18.00;;;11.47;;
5217;SDS011;26539;51.064;6.346;2024-01-15T12:00:34;13.87;;;10.13;;
5217;SDS011;26539;51.064;6.346;2024-01-15T12:03:04;16.53;;;9.67;;
5217;SDS011;26539;51.064;6.346;2024-01-15T12:05:30;17.63;;;9.17;;
5217;SDS011;26539;51.064;6.346;2024-01-15T12:07:55;24.60;;;9.30;;
5217;SDS011;26539;51.064;6.346;2024-01-15T12:10:21;20.57;;;8.87;;
5217;SDS011;26539;51.064;6.346;2024-01-15T12:12:53;10.70;;;8.15;;
5217;SDS011;26539;51.064;6.346;2024-01-15T12:15:23;25.95;;;8.95;;
5217;SDS011;26539;51.064;6.346;2024-01-15T12:17:49;15.98;;;6.80;;
5217;SDS011;26539;51.064;6.346;2024-01-15T12:20:15;16.00;;;6.70;;
5217;SDS011;26539;51.064;6.346;2024-01-15T12:22:42;16.13;;;7.15;;
5217;SDS011;26539;51.064;6.346;2024-01-15T12:25:08;16.10;;;6.78;;
5217;SDS011;26539;51.064;6.346;2024-01-15T12:27:34;17.23;;;6.80;;
5217;SDS011;26539;51.064;6.346;2024-01-15T12:30:00;14.77;;;7.77;;
5217;SDS011;26539;51.064;6.346;2024-01-15T12:32:25;14.60;;;6.43;;
5217;SDS011;26539;51.064;6.346;2024-01-15T12:34:51;7.90;;;5.10;;
5217;SDS011;26539;51.064;6.346;2024-01-15T12:37:20;12.47;;;5.53;;
5217;SDS011;26539;51.064;6.346;2024-01-15T12:39:46;15.40;;;6.45;;
5217;SDS011;26539;51.064;6.346;2024-01-15T12:42:16;9.13;;;6.10;;
5217;SDS011;26539;51.064;6.346;2024-01-15T12:44:42;9.50;;;5.00;;
5217;SDS011;26539;51.064;6.346;2024-01-15T12:47:08;5.45;;;4.35;;
5217;SDS011;26539;51.064;6.346;2024-01-15T12:49:35;6.07;;;4.60;;
5217;SDS011;26539;51.064;6.346;2024-01-15T12:52:02;7.88;;;4.00;;
5217;SDS011;26539;51.064;6.346;2024-01-15T12:54:28;12.53;;;4.63;;
5217;SDS011;26539;51.064;6.346;2024-01-15T12:56:54;5.10;;;4.53;;
5217;SDS011;26539;51.064;6.346;2024-01-15T12:59:22;5.78;;;4.40;;
5217;SDS011;26539;51.064;6.346;2024-01-15T13:01:47;10.73;;;4.97;;
5217;SDS011;26539;51.064;6.346;2024-01-15T13:04:21;8.52;;;4.57;;
5217;SDS011;26539;51.064;6.346;2024-01-15T13:06:48;8.25;;;5.25;;
5217;SDS011;26539;51.064;6.346;2024-01-15T13:09:14;6.13;;;4.97;;
5217;SDS011;26539;51.064;6.346;2024-01-15T13:11:40;7.27;;;5.10;;
5217;SDS011;26539;51.064;6.346;2024-01-15T13:14:06;6.77;;;4.97;;
5217;SDS011;26539;51.064;6.346;2024-01-15T13:16:31;7.23;;;4.63;;
5217;SDS011;26539;51.064;6.346;2024-01-15T13:18:57;8.00;;;4.77;;
5217;SDS011;26539;51.064;6.346;2024-01-15T13:21:23;5.38;;;4.50;;
5217;SDS011;26539;51.064;6.346;2024-01-15T13:23:49;11.97;;;4.83;;
5217;SDS011;26539;51.064;6.346;2024-01-15T13:26:15;9.80;;;4.87;;
5217;SDS011;26539;51.064;6.346;2024-01-15T13:28:40;7.17;;;4.80;;
5217;SDS011;26539;51.064;6.346;2024-01-15T13:31:06;7.13;;;4.80;;
5217;SDS011;26539;51.064;6.346;2024-01-15T13:33:31;10.27;;;4.43;;
5217;SDS011;26539;51.064;6.346;2024-01-15T13:35:57;5.17;;;4.40;;
5217;SDS011;26539;51.064;6.346;2024-01-15T13:38:23;7.23;;;3.97;;
5217;SDS011;26539;51.064;6.346;2024-01-15T13:40:49;4.65;;;3.30;;
5217;SDS011;26539;51.064;6.346;2024-01-15T13:43:14;5.73;;;3.10;;
5217;SDS011;26539;51.064;6.346;2024-01-15T13:45:43;3.33;;;3.03;;
5217;SDS011;26539;51.064;6.346;2024-01-15T13:48:09;5.38;;;3.35;;
5217;SDS011;26539;51.064;6.346;2024-01-15T13:50:35;5.03;;;3.60;;
5217;SDS011;26539;51.064;6.346;2024-01-15T13:53:00;5.90;;;3.90;;
5217;SDS011;26539;51.064;6.346;2024-01-15T13:55:28;5.55;;;3.70;;
5217;SDS011;26539;51.064;6.346;2024-01-15T13:57:54;5.63;;;3.83;;
5217;SDS011;26539;51.064;6.346;2024-01-15T14:00:20;5.10;;;4.63;;
5217;SDS011;26539;51.064;6.346;2024-01-15T14:02:46;8.00;;;3.83;;
5217;SDS011;26539;51.064;6.346;2024-01-15T14:05:12;7.05;;;3.97;;
5217;SDS011;26539;51.064;6.346;2024-01-15T14:07:40;4.93;;;3.90;;
5217;SDS011;26539;51.064;6.346;2024-01-15T14:10:08;11.90;;;4.85;;
5217;SDS011;26539;51.064;6.346;2024-01-15T14:12:34;12.00;;;3.70;;
5217;SDS011;26539;51.064;6.346;2024-01-15T14:15:01;10.90;;;4.80;;
5217;SDS011;26539;51.064;6.346;2024-01-15T14:17:30;8.25;;;5.45;;
5217;SDS011;26539;51.064;6.346;2024-01-15T14:19:55;8.13;;;5.90;;
5217;SDS011;26539;51.064;6.346;2024-01-15T14:22:21;8.87;;;6.53;;
5217;SDS011;26539;51.064;6.346;2024-01-15T14:24:46;9.73;;;5.80;;
5217;SDS011;26539;51.064;6.346;2024-01-15T14:27:12;7.60;;;5.47;;
5217;SDS011;26539;51.064;6.346;2024-01-15T14:29:37;9.20;;;5.30;;
5217;SDS011;26539;51.064;6.346;2024-01-15T14:32:03;6.30;;;4.90;;
5217;SDS011;26539;51.064;6.346;2024-01-15T14:34:30;5.90;;;4.93;;
5217;SDS011;26539;51.064;6.346;2024-01-15T14:36:55;7.13;;;4.63;;
5217;SDS011;26539;51.064;6.346;2024-01-15T14:39:21;5.70;;;4.67;;
5217;SDS011;26539;51.064;6.346;2024-01-15T14:41:47;7.60;;;5.03;;
5217;SDS011;26539;51.064;6.346;2024-01-15T14:44:13;5.80;;;4.63;;
5217;SDS011;26539;51.064;6.346;2024-01-15T14:46:39;7.63;;;4.50;;